Henderson, AR

6:09 AM CST on December 11, 2016 (GMT -0600)
Marion County Regional | | Change Station

Elev 715 ft 36.29 °N, 92.59 °W | Updated 14 minutes ago

Overcast
Overcast
45 °F
Feels Like 40 °F
N
8
Wind Variable Wind from SSE
Gusts 16 mph

Today
High -- | Low -- °F
--% Chance of Precip.
Yesterday
High -- | Low -- °F
Precip. -- in
Pressure 29.96 in
Visibility 10.0 miles
Clouds Overcast 3200 ft
Windchill 40 °F
Dew Point 21 °F
Humidity 39%
Rainfall 0.00 in
Snow Depth Not available.
7:10 AM 4:54 PM
Waxing Gibbous, 91% visible
METAR KFLP 111155Z AUTO 16007G14KT 10SM OVC032 07/M06 A2996 RMK AO1 10070 20050 57034
Pressure 29.96 in
Visibility 10.0 miles
Clouds Overcast 3200 ft
Windchill 40 °F
Dew Point 21 °F
Humidity 39%
Rainfall 0.00 in
Snow Depth Not available.
7:10 AM 4:54 PM
Waxing Gibbous, 91% visible
METAR KFLP 111155Z AUTO 16007G14KT 10SM OVC032 07/M06 A2996 RMK AO1 10070 20050 57034

10-Day Weather Forecast

Almanac

Astronomy

Dec. 11, 2016 Rise Set
Actual Time
Civil Twilight
Nautical Twilight
Astronomical Twilight
Moon
Length of Visible Light
Length of Day
Tomorrow will be .
, % of the Moon is Illuminated

Today's Extremes

State Highs State Lows

Community

WunderPhotos

Upload Photos

1,956,710 photos uploaded!

WunderBlog® & News

Nearby

Air Quality

  Air Quality AQ Index Pollutant
Not available.

Snow Depth

Station Depth Elevation

Earthquake Activity

City Distance Mag. Time & Date
Minimum magnitude displayed is 2.5.

Coastal Water Temperatures

Place Temperature

Stations

Nearby Weather Stations

Station Location Temp. Windchill Dew Point Humidity Wind Precip. Elev Updated Type
                   

Watches & Warnings

There are currently no watches in effect.